sensor_id;sensor_type;location;lat;lon;timestamp;pressure;altitude;pressure_sealevel;temperature;humidity
35331;BME280;21441;52.190;20.910;2023-03-14T00:01:43;98542.38;;;8.83;93.47
35331;BME280;21441;52.190;20.910;2023-03-14T00:04:10;98532.91;;;8.80;94.13
35331;BME280;21441;52.190;20.910;2023-03-14T00:06:39;98545.84;;;8.83;93.43
35331;BME280;21441;52.190;20.910;2023-03-14T00:09:07;98542.75;;;8.80;93.34
35331;BME280;21441;52.190;20.910;2023-03-14T00:11:34;98532.34;;;8.78;92.91
35331;BME280;21441;52.190;20.910;2023-03-14T00:14:01;98534.56;;;8.81;92.48
35331;BME280;21441;52.190;20.910;2023-03-14T00:16:29;98533.34;;;8.84;91.10
35331;BME280;21441;52.190;20.910;2023-03-14T00:18:57;98524.16;;;8.86;91.30
35331;BME280;21441;52.190;20.910;2023-03-14T00:21:25;98532.75;;;8.88;90.66
35331;BME280;21441;52.190;20.910;2023-03-14T00:23:54;98515.53;;;8.84;91.28
35331;BME280;21441;52.190;20.910;2023-03-14T00:26:21;98521.28;;;8.81;91.59
35331;BME280;21441;52.190;20.910;2023-03-14T00:28:51;98508.59;;;8.77;91.80
35331;BME280;21441;52.190;20.910;2023-03-14T00:31:19;98514.72;;;8.71;92.37
35331;BME280;21441;52.190;20.910;2023-03-14T00:33:47;98509.38;;;8.71;92.09
35331;BME280;21441;52.190;20.910;2023-03-14T00:36:16;98513.88;;;8.63;92.99
35331;BME280;21441;52.190;20.910;2023-03-14T00:38:46;98503.44;;;8.62;93.55
35331;BME280;21441;52.190;20.910;2023-03-14T00:41:17;98502.00;;;8.53;94.12
35331;BME280;21441;52.190;20.910;2023-03-14T00:43:45;98489.09;;;8.50;94.48
35331;BME280;21441;52.190;20.910;2023-03-14T00:46:12;98472.31;;;8.42;94.00
35331;BME280;21441;52.190;20.910;2023-03-14T00:48:40;98480.28;;;8.42;94.70
35331;BME280;21441;52.190;20.910;2023-03-14T00:51:08;98470.41;;;8.36;95.36
35331;BME280;21441;52.190;20.910;2023-03-14T00:53:38;98477.16;;;8.32;95.51
35331;BME280;21441;52.190;20.910;2023-03-14T00:56:08;98480.84;;;8.31;95.16
35331;BME280;21441;52.190;20.910;2023-03-14T00:58:37;98467.34;;;8.26;95.48
35331;BME280;21441;52.190;20.910;2023-03-14T01:01:06;98461.78;;;8.21;96.06
35331;BME280;21441;52.190;20.910;2023-03-14T01:03:33;98450.31;;;8.14;96.85
35331;BME280;21441;52.190;20.910;2023-03-14T01:06:09;98454.41;;;8.16;96.76
35331;BME280;21441;52.190;20.910;2023-03-14T01:08:36;98459.31;;;8.13;96.64
35331;BME280;21441;52.190;20.910;2023-03-14T01:11:08;98455.81;;;8.05;97.17
35331;BME280;21441;52.190;20.910;2023-03-14T01:13:38;98455.41;;;8.02;97.09
35331;BME280;21441;52.190;20.910;2023-03-14T01:16:07;98456.84;;;8.04;96.96
35331;BME280;21441;52.190;20.910;2023-03-14T01:18:35;98452.13;;;8.00;96.70
35331;BME280;21441;52.190;20.910;2023-03-14T01:21:04;98440.25;;;7.96;98.13
35331;BME280;21441;52.190;20.910;2023-03-14T01:23:36;98439.16;;;7.83;99.07
35331;BME280;21441;52.190;20.910;2023-03-14T01:26:04;98447.56;;;7.87;99.93
35331;BME280;21441;52.190;20.910;2023-03-14T01:28:31;98457.72;;;7.77;100.00
35331;BME280;21441;52.190;20.910;2023-03-14T01:31:03;98444.03;;;7.73;100.00
35331;BME280;21441;52.190;20.910;2023-03-14T01:33:30;98454.41;;;7.68;100.00
35331;BME280;21441;52.190;20.910;2023-03-14T01:35:58;98461.69;;;7.59;100.00
35331;BME280;21441;52.190;20.910;2023-03-14T01:38:28;98433.09;;;7.55;100.00
35331;BME280;21441;52.190;20.910;2023-03-14T01:40:55;98454.31;;;7.55;100.00
35331;BME280;21441;52.190;20.910;2023-03-14T01:43:23;98442.84;;;7.48;100.00
35331;BME280;21441;52.190;20.910;2023-03-14T01:46:21;98435.66;;;7.41;100.00
35331;BME280;21441;52.190;20.910;2023-03-14T01:49:01;98448.25;;;7.33;100.00
35331;BME280;21441;52.190;20.910;2023-03-14T01:51:32;98447.28;;;7.34;100.00
35331;BME280;21441;52.190;20.910;2023-03-14T01:54:07;98436.41;;;7.29;100.00
35331;BME280;21441;52.190;20.910;2023-03-14T01:56:36;98432.53;;;7.25;100.00
35331;BME280;21441;52.190;20.910;2023-03-14T01:59:06;98432.31;;;7.26;100.00
35331;BME280;21441;52.190;20.910;2023-03-14T02:01:37;98419.84;;;7.27;100.00
35331;BME280;21441;52.190;20.910;2023-03-14T02:04:07;98426.38;;;7.24;100.00
35331;BME280;21441;52.190;20.910;2023-03-14T02:06:42;98419.84;;;7.27;100.00
35331;BME280;21441;52.190;20.910;2023-03-14T02:09:14;98426.38;;;7.24;100.00
35331;BME280;21441;52.190;20.910;2023-03-14T02:11:43;98413.16;;;7.31;100.00
35331;BME280;21441;52.190;20.910;2023-03-14T02:14:19;98415.81;;;7.31;100.00
35331;BME280;21441;52.190;20.910;2023-03-14T02:16:52;98415.59;;;7.26;100.00
35331;BME280;21441;52.190;20.910;2023-03-14T02:19:25;98410.84;;;7.21;100.00
35331;BME280;21441;52.190;20.910;2023-03-14T02:22:00;98413.28;;;7.16;100.00
35331;BME280;21441;52.190;20.910;2023-03-14T02:24:34;98409.16;;;7.13;100.00
35331;BME280;21441;52.190;20.910;2023-03-14T02:27:13;98401.78;;;7.09;100.00
35331;BME280;21441;52.190;20.910;2023-03-14T02:29:47;98388.50;;;7.02;100.00
35331;BME280;21441;52.190;20.910;2023-03-14T02:32:16;98377.06;;;7.01;100.00
35331;BME280;21441;52.190;20.910;2023-03-14T02:34:49;98370.97;;;7.01;100.00
35331;BME280;21441;52.190;20.910;2023-03-14T02:37:17;98364.59;;;6.95;100.00
35331;BME280;21441;52.190;20.910;2023-03-14T02:39:46;98350.47;;;6.88;100.00
35331;BME280;21441;52.190;20.910;2023-03-14T02:42:16;98350.25;;;6.83;100.00
35331;BME280;21441;52.190;20.910;2023-03-14T02:44:52;98348.59;;;6.82;100.00
35331;BME280;21441;52.190;20.910;2023-03-14T02:47:25;98351.25;;;6.82;100.00
35331;BME280;21441;52.190;20.910;2023-03-14T02:49:57;98350.59;;;6.80;100.00
35331;BME280;21441;52.190;20.910;2023-03-14T02:52:26;98361.66;;;6.84;100.00
35331;BME280;21441;52.190;20.910;2023-03-14T02:54:53;98364.06;;;6.78;100.00
35331;BME280;21441;52.190;20.910;2023-03-14T02:57:22;98351.81;;;6.77;100.00
35331;BME280;21441;52.190;20.910;2023-03-14T02:59:49;98345.06;;;6.75;100.00
35331;BME280;21441;52.190;20.910;2023-03-14T03:02:16;98341.34;;;6.69;100.00
35331;BME280;21441;52.190;20.910;2023-03-14T03:04:44;98341.56;;;6.68;100.00
35331;BME280;21441;52.190;20.910;2023-03-14T03:07:11;98347.50;;;6.70;100.00
35331;BME280;21441;52.190;20.910;2023-03-14T03:09:38;98351.31;;;6.67;100.00
35331;BME280;21441;52.190;20.910;2023-03-14T03:12:06;98355.19;;;6.65;100.00
35331;BME280;21441;52.190;20.910;2023-03-14T03:14:35;98357.41;;;6.61;100.00
35331;BME280;21441;52.190;20.910;2023-03-14T03:17:03;98345.34;;;6.58;100.00
35331;BME280;21441;52.190;20.910;2023-03-14T03:19:31;98341.69;;;6.59;100.00
35331;BME280;21441;52.190;20.910;2023-03-14T03:21:58;98343.47;;;6.52;100.00
35331;BME280;21441;52.190;20.910;2023-03-14T03:24:26;98344.34;;;6.59;100.00
35331;BME280;21441;52.190;20.910;2023-03-14T03:26:53;98342.28;;;6.55;100.00
35331;BME280;21441;52.190;20.910;2023-03-14T03:29:20;98338.19;;;6.52;100.00
35331;BME280;21441;52.190;20.910;2023-03-14T03:31:49;98336.34;;;6.53;100.00
35331;BME280;21441;52.190;20.910;2023-03-14T03:34:16;98348.97;;;6.51;100.00
35331;BME280;21441;52.190;20.910;2023-03-14T03:36:43;98341.81;;;6.51;100.00
35331;BME280;21441;52.190;20.910;2023-03-14T03:39:11;98343.28;;;6.54;100.00
35331;BME280;21441;52.190;20.910;2023-03-14T03:41:38;98328.56;;;6.51;100.00
35331;BME280;21441;52.190;20.910;2023-03-14T03:44:05;98320.63;;;6.51;100.00
35331;BME280;21441;52.190;20.910;2023-03-14T03:46:32;98317.22;;;6.57;100.00
35331;BME280;21441;52.190;20.910;2023-03-14T03:49:01;98331.72;;;6.61;100.00
35331;BME280;21441;52.190;20.910;2023-03-14T03:51:28;98313.22;;;6.68;99.47
35331;BME280;21441;52.190;20.910;2023-03-14T03:53:56;98316.63;;;6.62;99.40
35331;BME280;21441;52.190;20.910;2023-03-14T03:56:24;98330.53;;;6.64;98.76
35331;BME280;21441;52.190;20.910;2023-03-14T03:58:51;98320.72;;;6.65;98.48
35331;BME280;21441;52.190;20.910;2023-03-14T04:01:18;98335.19;;;6.62;98.71
35331;BME280;21441;52.190;20.910;2023-03-14T04:03:45;98334.19;;;6.63;98.45
35331;BME280;21441;52.190;20.910;2023-03-14T04:06:14;98329.88;;;6.62;98.28
35331;BME280;21441;52.190;20.910;2023-03-14T04:08:41;98335.13;;;6.55;98.15
35331;BME280;21441;52.190;20.910;2023-03-14T04:11:09;98338.53;;;6.49;99.02
35331;BME280;21441;52.190;20.910;2023-03-14T04:13:37;98355.69;;;6.53;98.48
35331;BME280;21441;52.190;20.910;2023-03-14T04:16:11;98356.50;;;6.54;97.89
35331;BME280;21441;52.190;20.910;2023-03-14T04:18:41;98351.03;;;6.55;97.62
35331;BME280;21441;52.190;20.910;2023-03-14T04:21:08;98342.69;;;6.58;96.87
35331;BME280;21441;52.190;20.910;2023-03-14T04:23:36;98330.69;;;6.63;96.09
35331;BME280;21441;52.190;20.910;2023-03-14T04:26:04;98336.41;;;6.59;96.05
35331;BME280;21441;52.190;20.910;2023-03-14T04:28:32;98339.41;;;6.56;96.40
35331;BME280;21441;52.190;20.910;2023-03-14T04:31:06;98344.28;;;6.53;96.42
35331;BME280;21441;52.190;20.910;2023-03-14T04:33:33;98348.78;;;6.52;96.46
35331;BME280;21441;52.190;20.910;2023-03-14T04:36:02;98341.66;;;6.53;96.12
35331;BME280;21441;52.190;20.910;2023-03-14T04:38:29;98339.63;;;6.55;95.82
35331;BME280;21441;52.190;20.910;2023-03-14T04:40:58;98339.41;;;6.56;95.87
35331;BME280;21441;52.190;20.910;2023-03-14T04:43:26;98328.56;;;6.51;95.98
35331;BME280;21441;52.190;20.910;2023-03-14T04:45:54;98317.41;;;6.56;96.04
35331;BME280;21441;52.190;20.910;2023-03-14T04:48:22;98301.91;;;6.53;96.79
35331;BME280;21441;52.190;20.910;2023-03-14T04:50:50;98286.38;;;6.50;97.13
35331;BME280;21441;52.190;20.910;2023-03-14T04:53:18;98292.25;;;6.45;97.75
35331;BME280;21441;52.190;20.910;2023-03-14T04:55:48;98285.50;;;6.43;98.44
35331;BME280;21441;52.190;20.910;2023-03-14T04:58:17;98285.69;;;6.41;99.33
35331;BME280;21441;52.190;20.910;2023-03-14T05:00:44;98283.91;;;6.42;99.04
35331;BME280;21441;52.190;20.910;2023-03-14T05:03:11;98267.78;;;6.43;99.60
35331;BME280;21441;52.190;20.910;2023-03-14T05:05:39;98266.16;;;6.42;98.75
35331;BME280;21441;52.190;20.910;2023-03-14T05:08:06;98265.75;;;6.45;98.58
35331;BME280;21441;52.190;20.910;2023-03-14T05:10:33;98261.31;;;6.46;98.12
35331;BME280;21441;52.190;20.910;2023-03-14T05:13:00;98246.41;;;6.45;97.98
35331;BME280;21441;52.190;20.910;2023-03-14T05:15:29;98246.47;;;6.51;98.21
35331;BME280;21441;52.190;20.910;2023-03-14T05:17:57;98255.63;;;6.49;98.55
35331;BME280;21441;52.190;20.910;2023-03-14T05:20:24;98246.47;;;6.51;98.07
35331;BME280;21441;52.190;20.910;2023-03-14T05:22:51;98260.72;;;6.50;98.29
35331;BME280;21441;52.190;20.910;2023-03-14T05:25:18;98271.69;;;6.47;98.41
35331;BME280;21441;52.190;20.910;2023-03-14T05:27:46;98270.06;;;6.46;98.33
35331;BME280;21441;52.190;20.910;2023-03-14T05:30:14;98264.31;;;6.43;98.50
35331;BME280;21441;52.190;20.910;2023-03-14T05:32:42;98252.88;;;6.35;99.34
35331;BME280;21441;52.190;20.910;2023-03-14T05:35:09;98249.78;;;6.32;99.29
35331;BME280;21441;52.190;20.910;2023-03-14T05:37:37;98233.72;;;6.33;99.93
35331;BME280;21441;52.190;20.910;2023-03-14T05:40:05;98233.53;;;6.35;99.79
35331;BME280;21441;52.190;20.910;2023-03-14T05:42:34;98226.19;;;6.37;98.96
35331;BME280;21441;52.190;20.910;2023-03-14T05:45:01;98228.06;;;6.43;98.33
35331;BME280;21441;52.190;20.910;2023-03-14T05:47:28;98228.69;;;6.45;98.37
35331;BME280;21441;52.190;20.910;2023-03-14T05:49:57;98218.75;;;6.54;97.12
35331;BME280;21441;52.190;20.910;2023-03-14T05:52:24;98215.97;;;6.62;95.68
35331;BME280;21441;52.190;20.910;2023-03-14T05:54:52;98208.84;;;6.69;95.09
35331;BME280;21441;52.190;20.910;2023-03-14T05:57:19;98202.81;;;6.82;94.14
35331;BME280;21441;52.190;20.910;2023-03-14T05:59:46;98198.16;;;6.91;92.31
35331;BME280;21441;52.190;20.910;2023-03-14T06:02:13;98198.22;;;7.04;91.87
35331;BME280;21441;52.190;20.910;2023-03-14T06:04:41;98197.03;;;7.13;90.99
35331;BME280;21441;52.190;20.910;2023-03-14T06:07:09;98190.13;;;7.26;89.66
35331;BME280;21441;52.190;20.910;2023-03-14T06:09:37;98184.44;;;7.29;89.18
35331;BME280;21441;52.190;20.910;2023-03-14T06:12:05;98185.91;;;7.38;87.91
35331;BME280;21441;52.190;20.910;2023-03-14T06:14:33;98189.56;;;7.43;87.90
35331;BME280;21441;52.190;20.910;2023-03-14T06:17:00;98187.09;;;7.35;87.48
35331;BME280;21441;52.190;20.910;2023-03-14T06:19:27;98173.81;;;7.35;87.78
35331;BME280;21441;52.190;20.910;2023-03-14T06:21:54;98180.00;;;7.42;87.81
35331;BME280;21441;52.190;20.910;2023-03-14T06:24:23;98192.84;;;7.46;86.64
35331;BME280;21441;52.190;20.910;2023-03-14T06:26:50;98194.50;;;7.53;86.40
35331;BME280;21441;52.190;20.910;2023-03-14T06:29:18;98194.50;;;7.60;85.82
35331;BME280;21441;52.190;20.910;2023-03-14T06:31:45;98195.34;;;7.67;86.08
35331;BME280;21441;52.190;20.910;2023-03-14T06:34:12;98184.09;;;7.72;85.32
35331;BME280;21441;52.190;20.910;2023-03-14T06:36:39;98189.84;;;7.75;84.39
35331;BME280;21441;52.190;20.910;2023-03-14T06:39:07;98191.66;;;7.81;83.49
35331;BME280;21441;52.190;20.910;2023-03-14T06:41:36;98180.66;;;7.91;82.27
35331;BME280;21441;52.190;20.910;2023-03-14T06:44:03;98179.22;;;8.02;81.89
35331;BME280;21441;52.190;20.910;2023-03-14T06:46:31;98179.00;;;8.23;79.98
35331;BME280;21441;52.190;20.910;2023-03-14T06:48:58;98184.06;;;8.38;78.68
35331;BME280;21441;52.190;20.910;2023-03-14T06:51:25;98173.88;;;8.55;77.51
35331;BME280;21441;52.190;20.910;2023-03-14T06:53:53;98185.25;;;8.76;75.90
35331;BME280;21441;52.190;20.910;2023-03-14T06:56:20;98186.41;;;8.93;76.27
35331;BME280;21441;52.190;20.910;2023-03-14T06:58:48;98175.72;;;9.06;74.08
35331;BME280;21441;52.190;20.910;2023-03-14T07:01:21;98168.13;;;9.17;73.55
35331;BME280;21441;52.190;20.910;2023-03-14T07:03:50;98154.53;;;9.32;73.51
35331;BME280;21441;52.190;20.910;2023-03-14T07:06:17;98169.25;;;9.34;71.61
35331;BME280;21441;52.190;20.910;2023-03-14T07:08:45;98188.84;;;9.46;71.50
35331;BME280;21441;52.190;20.910;2023-03-14T07:11:12;98190.19;;;9.62;72.01
35331;BME280;21441;52.190;20.910;2023-03-14T07:13:40;98193.22;;;9.66;70.05
35331;BME280;21441;52.190;20.910;2023-03-14T07:16:09;98196.00;;;9.78;68.68
35331;BME280;21441;52.190;20.910;2023-03-14T07:18:36;98194.25;;;9.90;68.20
35331;BME280;21441;52.190;20.910;2023-03-14T07:21:04;98196.50;;;9.93;67.45
35331;BME280;21441;52.190;20.910;2023-03-14T07:23:32;98185.91;;;10.11;67.09
35331;BME280;21441;52.190;20.910;2023-03-14T07:25:59;98183.34;;;10.30;65.95
35331;BME280;21441;52.190;20.910;2023-03-14T07:28:26;98176.88;;;10.38;65.58
35331;BME280;21441;52.190;20.910;2023-03-14T07:30:54;98203.06;;;10.66;63.43
35331;BME280;21441;52.190;20.910;2023-03-14T07:33:23;98188.84;;;10.72;62.80
35331;BME280;21441;52.190;20.910;2023-03-14T07:35:50;98194.72;;;10.81;62.21
35331;BME280;21441;52.190;20.910;2023-03-14T07:38:18;98197.81;;;10.78;62.60
35331;BME280;21441;52.190;20.910;2023-03-14T07:40:45;98202.03;;;10.85;62.21
35331;BME280;21441;52.190;20.910;2023-03-14T07:43:12;98203.75;;;10.98;61.87
35331;BME280;21441;52.190;20.910;2023-03-14T07:45:39;98196.00;;;11.08;61.53
35331;BME280;21441;52.190;20.910;2023-03-14T07:48:06;98188.22;;;11.25;60.63
35331;BME280;21441;52.190;20.910;2023-03-14T07:50:35;98179.00;;;11.40;60.18
35331;BME280;21441;52.190;20.910;2023-03-14T07:53:02;98196.94;;;11.63;59.14
35331;BME280;21441;52.190;20.910;2023-03-14T07:55:29;98200.00;;;11.66;58.23
35331;BME280;21441;52.190;20.910;2023-03-14T07:57:57;98180.78;;;11.88;58.95
35331;BME280;21441;52.190;20.910;2023-03-14T08:00:24;98184.16;;;11.95;58.12
35331;BME280;21441;52.190;20.910;2023-03-14T08:02:51;98182.78;;;12.04;57.85
35331;BME280;21441;52.190;20.910;2023-03-14T08:05:18;98177.44;;;12.16;57.27
35331;BME280;21441;52.190;20.910;2023-03-14T08:07:47;98185.13;;;12.36;57.56
35331;BME280;21441;52.190;20.910;2023-03-14T08:10:14;98191.41;;;12.42;56.72
35331;BME280;21441;52.190;20.910;2023-03-14T08:12:48;98187.91;;;12.53;56.19
35331;BME280;21441;52.190;20.910;2023-03-14T08:15:16;98194.53;;;12.62;55.65
35331;BME280;21441;52.190;20.910;2023-03-14T08:17:43;98198.94;;;12.45;55.05
35331;BME280;21441;52.190;20.910;2023-03-14T08:20:11;98185.38;;;12.34;55.68
35331;BME280;21441;52.190;20.910;2023-03-14T08:22:39;98192.81;;;12.56;55.44
35331;BME280;21441;52.190;20.910;2023-03-14T08:25:08;98194.53;;;12.74;55.04
35331;BME280;21441;52.190;20.910;2023-03-14T08:27:35;98197.19;;;12.62;55.30
35331;BME280;21441;52.190;20.910;2023-03-14T08:30:05;98204.06;;;12.70;54.54
35331;BME280;21441;52.190;20.910;2023-03-14T08:32:33;98213.00;;;12.75;54.75
35331;BME280;21441;52.190;20.910;2023-03-14T08:35:00;98211.22;;;12.93;54.32
35331;BME280;21441;52.190;20.910;2023-03-14T08:37:28;98199.28;;;12.95;54.10
35331;BME280;21441;52.190;20.910;2023-03-14T08:39:56;98194.16;;;12.82;54.57
35331;BME280;21441;52.190;20.910;2023-03-14T08:42:25;98211.72;;;12.90;54.54
35331;BME280;21441;52.190;20.910;2023-03-14T08:44:52;98198.25;;;12.85;54.23
35331;BME280;21441;52.190;20.910;2023-03-14T08:47:20;98197.66;;;12.83;54.13
35331;BME280;21441;52.190;20.910;2023-03-14T08:49:47;98190.41;;;12.95;54.42
35331;BME280;21441;52.190;20.910;2023-03-14T08:52:15;98194.91;;;13.18;53.83
35331;BME280;21441;52.190;20.910;2023-03-14T08:54:43;98199.31;;;13.24;53.02
35331;BME280;21441;52.190;20.910;2023-03-14T08:57:11;98219.78;;;13.30;52.76
35331;BME280;21441;52.190;20.910;2023-03-14T08:59:39;98208.59;;;13.21;53.07
35331;BME280;21441;52.190;20.910;2023-03-14T09:02:09;98186.16;;;13.23;53.62
35331;BME280;21441;52.190;20.910;2023-03-14T09:04:37;98195.63;;;13.13;52.77
35331;BME280;21441;52.190;20.910;2023-03-14T09:07:05;98189.53;;;13.30;53.43
35331;BME280;21441;52.190;20.910;2023-03-14T09:09:32;98179.72;;;13.24;53.26
35331;BME280;21441;52.190;20.910;2023-03-14T09:11:59;98187.38;;;13.44;53.20
35331;BME280;21441;52.190;20.910;2023-03-14T09:14:27;98188.91;;;13.39;53.09
35331;BME280;21441;52.190;20.910;2023-03-14T09:16:56;98174.53;;;13.29;53.45
35331;BME280;21441;52.190;20.910;2023-03-14T09:19:23;98167.44;;;13.51;52.91
35331;BME280;21441;52.190;20.910;2023-03-14T09:21:50;98162.09;;;13.68;53.02
35331;BME280;21441;52.190;20.910;2023-03-14T09:24:18;98157.72;;;13.96;51.62
35331;BME280;21441;52.190;20.910;2023-03-14T09:26:45;98154.66;;;14.04;50.96
35331;BME280;21441;52.190;20.910;2023-03-14T09:29:13;98150.81;;;14.17;51.98
35331;BME280;21441;52.190;20.910;2023-03-14T09:31:40;98132.94;;;14.22;51.45
35331;BME280;21441;52.190;20.910;2023-03-14T09:34:09;98140.91;;;14.34;50.88
35331;BME280;21441;52.190;20.910;2023-03-14T09:36:36;98140.91;;;14.00;50.83
35331;BME280;21441;52.190;20.910;2023-03-14T09:39:05;98160.09;;;13.92;50.88
35331;BME280;21441;52.190;20.910;2023-03-14T09:41:34;98143.13;;;13.87;50.94
35331;BME280;21441;52.190;20.910;2023-03-14T09:44:06;98136.03;;;14.14;50.90
35331;BME280;21441;52.190;20.910;2023-03-14T09:46:38;98126.47;;;14.18;50.83
35331;BME280;21441;52.190;20.910;2023-03-14T09:49:11;98127.59;;;14.44;49.78
35331;BME280;21441;52.190;20.910;2023-03-14T09:51:40;98114.13;;;14.56;50.05
35331;BME280;21441;52.190;20.910;2023-03-14T09:54:19;98106.47;;;14.65;49.67
35331;BME280;21441;52.190;20.910;2023-03-14T09:56:51;98113.31;;;15.00;48.83
35331;BME280;21441;52.190;20.910;2023-03-14T09:59:19;98101.34;;;15.13;48.70
35331;BME280;21441;52.190;20.910;2023-03-14T10:01:46;98093.38;;;15.18;48.42
35331;BME280;21441;52.190;20.910;2023-03-14T10:04:20;98091.53;;;15.23;48.15
35331;BME280;21441;52.190;20.910;2023-03-14T10:06:49;98094.75;;;15.25;48.24
35331;BME280;21441;52.190;20.910;2023-03-14T10:09:19;98117.59;;;15.01;48.46
35331;BME280;21441;52.190;20.910;2023-03-14T10:11:53;98113.06;;;14.57;49.34
35331;BME280;21441;52.190;20.910;2023-03-14T10:14:32;98099.41;;;14.59;49.35
35331;BME280;21441;52.190;20.910;2023-03-14T10:17:08;98106.78;;;14.52;49.79
35331;BME280;21441;52.190;20.910;2023-03-14T10:19:37;98101.63;;;14.45;50.03
35331;BME280;21441;52.190;20.910;2023-03-14T10:22:11;98102.19;;;14.47;50.10
35331;BME280;21441;52.190;20.910;2023-03-14T10:24:45;98105.34;;;14.44;50.07
35331;BME280;21441;52.190;20.910;2023-03-14T10:27:19;98130.78;;;14.41;50.55
35331;BME280;21441;52.190;20.910;2023-03-14T10:29:53;98102.22;;;14.13;51.16
35331;BME280;21441;52.190;20.910;2023-03-14T10:32:22;98090.53;;;14.19;50.85
35331;BME280;21441;52.190;20.910;2023-03-14T10:35:19;98096.72;;;14.42;50.76
35331;BME280;21441;52.190;20.910;2023-03-14T10:37:52;98084.28;;;14.75;49.81
35331;BME280;21441;52.190;20.910;2023-03-14T10:40:25;98091.72;;;15.17;49.20
35331;BME280;21441;52.190;20.910;2023-03-14T10:42:54;98071.25;;;15.38;48.77
35331;BME280;21441;52.190;20.910;2023-03-14T10:45:28;98070.44;;;15.69;48.04
35331;BME280;21441;52.190;20.910;2023-03-14T10:47:59;98068.16;;;16.26;47.08
35331;BME280;21441;52.190;20.910;2023-03-14T10:50:33;98066.91;;;16.44;46.39
35331;BME280;21441;52.190;20.910;2023-03-14T10:53:02;98065.91;;;16.65;46.02
35331;BME280;21441;52.190;20.910;2023-03-14T10:55:41;98070.50;;;16.70;46.21
35331;BME280;21441;52.190;20.910;2023-03-14T10:58:22;98064.88;;;16.77;45.48
35331;BME280;21441;52.190;20.910;2023-03-14T11:00:54;98069.38;;;16.56;45.31
35331;BME280;21441;52.190;20.910;2023-03-14T11:03:26;98066.41;;;16.52;45.33
35331;BME280;21441;52.190;20.910;2023-03-14T11:05:59;98064.59;;;16.15;46.45
35331;BME280;21441;52.190;20.910;2023-03-14T11:08:34;98072.22;;;15.86;46.69
35331;BME280;21441;52.190;20.910;2023-03-14T11:11:12;98066.00;;;15.53;47.78
35331;BME280;21441;52.190;20.910;2023-03-14T11:13:48;98074.47;;;15.35;48.47
35331;BME280;21441;52.190;20.910;2023-03-14T11:16:23;98075.78;;;15.05;47.89
35331;BME280;21441;52.190;20.910;2023-03-14T11:19:03;98075.13;;;14.71;49.20
35331;BME280;21441;52.190;20.910;2023-03-14T11:21:41;98088.63;;;14.76;49.46
35331;BME280;21441;52.190;20.910;2023-03-14T11:24:37;98096.72;;;14.59;49.95
35331;BME280;21441;52.190;20.910;2023-03-14T11:27:16;98107.22;;;14.43;50.64
35331;BME280;21441;52.190;20.910;2023-03-14T11:29:53;98100.66;;;14.34;50.39
35331;BME280;21441;52.190;20.910;2023-03-14T11:32:28;98088.19;;;14.23;50.73
35331;BME280;21441;52.190;20.910;2023-03-14T11:35:02;98075.19;;;14.15;50.88
35331;BME280;21441;52.190;20.910;2023-03-14T11:37:34;98072.53;;;14.37;50.67
35331;BME280;21441;52.190;20.910;2023-03-14T11:40:08;98073.81;;;14.73;50.10
35331;BME280;21441;52.190;20.910;2023-03-14T11:42:42;98067.13;;;14.98;49.75
35331;BME280;21441;52.190;20.910;2023-03-14T11:45:16;98069.34;;;15.33;48.79
35331;BME280;21441;52.190;20.910;2023-03-14T11:47:46;98070.28;;;16.19;47.48
35331;BME280;21441;52.190;20.910;2023-03-14T11:50:18;98082.38;;;16.16;47.30
35331;BME280;21441;52.190;20.910;2023-03-14T11:52:50;98084.63;;;15.65;48.51
35331;BME280;21441;52.190;20.910;2023-03-14T11:55:24;98085.94;;;15.57;48.83
35331;BME280;21441;52.190;20.910;2023-03-14T11:57:56;98078.31;;;15.44;49.25
35331;BME280;21441;52.190;20.910;2023-03-14T12:00:25;98083.19;;;15.52;49.14
35331;BME280;21441;52.190;20.910;2023-03-14T12:02:57;98089.97;;;15.60;49.35
35331;BME280;21441;52.190;20.910;2023-03-14T12:05:38;98092.53;;;15.72;48.93
35331;BME280;21441;52.190;20.910;2023-03-14T12:11:04;98058.41;;;16.09;47.97
35331;BME280;21441;52.190;20.910;2023-03-14T12:13:36;98076.53;;;15.55;49.11
35331;BME280;21441;52.190;20.910;2023-03-14T12:16:06;98081.75;;;15.12;50.00
35331;BME280;21441;52.190;20.910;2023-03-14T12:18:38;98084.47;;;14.90;50.57
35331;BME280;21441;52.190;20.910;2023-03-14T12:21:09;98087.66;;;14.87;50.95
35331;BME280;21441;52.190;20.910;2023-03-14T12:23:41;98084.66;;;14.61;51.48
35331;BME280;21441;52.190;20.910;2023-03-14T12:26:15;98078.50;;;14.44;51.54
35331;BME280;21441;52.190;20.910;2023-03-14T12:28:44;98087.69;;;14.48;52.17
35331;BME280;21441;52.190;20.910;2023-03-14T12:31:41;98091.13;;;14.43;52.66
35331;BME280;21441;52.190;20.910;2023-03-14T12:34:27;98089.16;;;14.17;53.07
35331;BME280;21441;52.190;20.910;2023-03-14T12:37:15;98094.88;;;14.03;53.79
35331;BME280;21441;52.190;20.910;2023-03-14T12:39:54;98100.88;;;13.60;54.76
35331;BME280;21441;52.190;20.910;2023-03-14T12:42:38;98102.34;;;13.51;55.57
35331;BME280;21441;52.190;20.910;2023-03-14T12:45:15;98107.19;;;13.54;55.94
35331;BME280;21441;52.190;20.910;2023-03-14T12:48:04;98111.19;;;13.51;57.19
35331;BME280;21441;52.190;20.910;2023-03-14T12:50:43;98119.72;;;13.48;58.53
35331;BME280;21441;52.190;20.910;2023-03-14T12:53:37;98104.94;;;12.76;60.83
35331;BME280;21441;52.190;20.910;2023-03-14T12:56:40;98118.97;;;12.55;63.49
35331;BME280;21441;52.190;20.910;2023-03-14T12:59:28;98114.78;;;12.35;67.77
35331;BME280;21441;52.190;20.910;2023-03-14T13:01:59;98115.25;;;12.56;69.94
35331;BME280;21441;52.190;20.910;2023-03-14T13:04:30;98125.38;;;12.54;70.02
35331;BME280;21441;52.190;20.910;2023-03-14T13:06:59;98121.31;;;12.16;72.57
35331;BME280;21441;52.190;20.910;2023-03-14T13:09:53;98124.44;;;12.25;75.41
35331;BME280;21441;52.190;20.910;2023-03-14T13:12:38;98123.19;;;12.15;76.80